createdAt,value
2023-09-13T00:01:42.187Z,72.53
2023-09-13T00:04:11.422Z,74.51
2023-09-13T00:06:59.643Z,71.83
2023-09-13T00:09:47.815Z,71.31
2023-09-13T00:12:55.996Z,71.69
2023-09-13T00:15:52.151Z,71.85
2023-09-13T00:18:47.877Z,74.20
2023-09-13T00:21:40.331Z,71.58
2023-09-13T00:24:34.270Z,72.87
2023-09-13T00:27:22.180Z,72.10
2023-09-13T00:30:07.209Z,74.31
2023-09-13T00:32:56.102Z,71.96
2023-09-13T00:35:27.516Z,72.50
2023-09-13T00:37:57.063Z,73.26
2023-09-13T00:41:00.435Z,74.01
2023-09-13T00:43:31.331Z,71.36
2023-09-13T00:46:21.103Z,71.92
2023-09-13T00:49:13.677Z,74.30
2023-09-13T00:52:06.211Z,72.68
2023-09-13T00:55:14.537Z,73.44
2023-09-13T00:57:43.618Z,77.88
2023-09-13T01:00:15.143Z,74.47
2023-09-13T01:03:03.679Z,74.24
2023-09-13T01:05:59.489Z,73.27
2023-09-13T01:08:28.314Z,73.96
2023-09-13T01:10:56.133Z,73.39
2023-09-13T01:14:03.879Z,74.47
2023-09-13T01:16:34.923Z,76.52
2023-09-13T01:19:29.945Z,77.53
2023-09-13T01:22:38.011Z,77.02
2023-09-13T01:25:47.127Z,76.32
2023-09-13T01:28:15.422Z,77.43
2023-09-13T01:30:54.690Z,78.58
2023-09-13T01:33:47.289Z,75.51
2023-09-13T01:36:15.836Z,77.66
2023-09-13T01:38:56.939Z,74.85
2023-09-13T01:41:55.624Z,74.19
2023-09-13T01:44:31.575Z,76.25
2023-09-13T01:47:20.602Z,75.42
2023-09-13T01:50:12.286Z,77.08
2023-09-13T01:52:57.545Z,77.13
2023-09-13T01:55:25.755Z,75.45
2023-09-13T01:58:14.704Z,74.89
2023-09-13T02:01:04.420Z,76.47
2023-09-13T02:03:47.769Z,77.55
2023-09-13T02:06:39.374Z,78.02
2023-09-13T02:09:25.372Z,75.79
2023-09-13T02:12:13.665Z,76.35
2023-09-13T02:15:02.393Z,76.23
2023-09-13T02:17:42.261Z,77.40
2023-09-13T02:20:16.549Z,78.60
2023-09-13T02:23:32.364Z,76.70
2023-09-13T02:26:27.875Z,75.11
2023-09-13T02:29:16.895Z,79.80
2023-09-13T02:32:05.576Z,79.95
2023-09-13T02:35:13.403Z,77.62
2023-09-13T02:37:43.762Z,76.87
2023-09-13T02:40:11.954Z,79.27
2023-09-13T02:43:00.367Z,77.14
2023-09-13T02:45:48.517Z,77.50
2023-09-13T02:48:38.058Z,79.35
2023-09-13T02:51:07.734Z,78.04
2023-09-13T02:53:39.951Z,80.39
2023-09-13T02:56:47.434Z,79.30
2023-09-13T02:59:16.403Z,80.92
2023-09-13T03:02:24.131Z,81.05
2023-09-13T03:04:52.747Z,79.51
2023-09-13T03:07:42.573Z,78.47
2023-09-13T03:10:54.034Z,78.24
2023-09-13T03:13:23.486Z,77.90
2023-09-13T03:16:27.336Z,76.94
2023-09-13T03:18:57.197Z,78.81
2023-09-13T03:21:55.168Z,79.83
2023-09-13T03:24:24.433Z,78.47
2023-09-13T03:27:00.660Z,78.05
2023-09-13T03:29:35.376Z,78.47
2023-09-13T03:32:39.217Z,78.52
2023-09-13T03:35:12.131Z,77.84
2023-09-13T03:37:48.832Z,79.79
2023-09-13T03:40:58.063Z,80.87
2023-09-13T03:44:06.589Z,79.19
2023-09-13T03:46:36.583Z,80.92
2023-09-13T03:49:27.058Z,80.14
2023-09-13T03:52:30.514Z,79.42
2023-09-13T03:55:19.437Z,80.01
2023-09-13T03:58:07.990Z,78.85
2023-09-13T04:01:11.926Z,80.03
2023-09-13T04:03:44.696Z,80.45
2023-09-13T04:06:15.544Z,79.06
2023-09-13T04:09:02.307Z,80.31
2023-09-13T04:11:32.050Z,79.45
2023-09-13T04:14:16.866Z,81.12
2023-09-13T04:16:55.191Z,79.30
2023-09-13T04:19:44.009Z,78.60
2023-09-13T04:22:32.523Z,78.90
2023-09-13T04:25:21.720Z,80.36
2023-09-13T04:28:09.295Z,80.01
2023-09-13T04:30:57.684Z,79.68
2023-09-13T04:33:50.093Z,78.42
2023-09-13T04:36:38.848Z,79.98
2023-09-13T04:39:29.692Z,78.68
2023-09-13T04:42:05.959Z,78.30
2023-09-13T04:44:56.733Z,77.90
2023-09-13T04:47:27.580Z,79.07
2023-09-13T04:50:23.075Z,78.71
2023-09-13T04:53:17.376Z,78.51
2023-09-13T04:55:51.583Z,78.53
2023-09-13T04:58:43.449Z,77.27
2023-09-13T05:01:35.253Z,78.08
2023-09-13T05:04:43.117Z,79.12
2023-09-13T05:07:12.505Z,79.35
2023-09-13T05:10:03.628Z,79.15
2023-09-13T05:12:32.735Z,79.09
2023-09-13T05:15:36.801Z,78.25
2023-09-13T05:18:09.244Z,77.83
2023-09-13T05:20:41.998Z,77.60
2023-09-13T05:23:33.552Z,77.64
2023-09-13T05:26:25.191Z,76.94
2023-09-13T05:28:55.604Z,76.97
2023-09-13T05:32:04.517Z,76.79
2023-09-13T05:34:52.108Z,76.28
2023-09-13T05:37:21.471Z,75.93
2023-09-13T05:40:25.757Z,75.70
2023-09-13T05:43:20.950Z,75.31
2023-09-13T05:45:57.257Z,75.39
2023-09-13T05:48:26.076Z,75.86
2023-09-13T05:50:54.975Z,74.89
2023-09-13T05:53:44.648Z,74.41
2023-09-13T05:56:13.583Z,74.23
2023-09-13T05:58:59.518Z,74.17
2023-09-13T06:01:36.981Z,73.89
2023-09-13T06:04:25.816Z,74.02
2023-09-13T06:06:58.906Z,74.16
2023-09-13T06:09:46.717Z,74.18
2023-09-13T06:12:15.911Z,73.81
2023-09-13T06:14:59.587Z,73.97
2023-09-13T06:17:28.548Z,73.25
2023-09-13T06:20:17.049Z,72.82
2023-09-13T06:23:36.206Z,71.99
2023-09-13T06:26:23.550Z,71.58
2023-09-13T06:28:52.824Z,71.04
2023-09-13T06:31:32.860Z,70.77
2023-09-13T06:36:54.439Z,69.49
2023-09-13T06:39:24.986Z,69.74
2023-09-13T06:42:27.509Z,69.81
2023-09-13T06:45:22.407Z,69.12
2023-09-13T06:48:10.544Z,68.85
2023-09-13T06:53:34.672Z,69.38
2023-09-13T06:56:24.463Z,68.21
2023-09-13T06:58:59.307Z,68.17
2023-09-13T07:04:22.189Z,67.74
2023-09-13T07:06:56.544Z,66.91
2023-09-13T07:09:27.600Z,67.17
2023-09-13T07:12:35.106Z,66.81
2023-09-13T07:15:07.356Z,66.06
2023-09-13T07:17:40.416Z,66.05
2023-09-13T07:20:48.512Z,65.33
2023-09-13T07:23:17.613Z,65.45
2023-09-13T07:25:49.093Z,64.98
2023-09-13T07:28:37.017Z,64.26
2023-09-13T07:31:44.632Z,62.06
2023-09-13T07:34:32.045Z,61.86
2023-09-13T07:37:01.893Z,60.26
2023-09-13T07:39:31.612Z,61.37
2023-09-13T07:41:59.844Z,60.70
2023-09-13T07:44:30.522Z,59.84
2023-09-13T07:47:14.510Z,57.38
2023-09-13T07:49:44.614Z,56.70
2023-09-13T07:52:48.630Z,56.29
2023-09-13T07:55:25.149Z,55.82
2023-09-13T07:58:52.972Z,55.18
2023-09-13T08:01:42.033Z,55.06
2023-09-13T08:05:01.149Z,55.70
2023-09-13T08:07:49.265Z,54.53
2023-09-13T08:10:41.858Z,51.79
2023-09-13T08:13:15.617Z,50.86
2023-09-13T08:15:49.467Z,50.21
2023-09-13T08:18:40.454Z,50.25
2023-09-13T08:21:28.185Z,49.02
2023-09-13T08:23:58.863Z,49.32
2023-09-13T08:26:28.755Z,48.42
2023-09-13T08:29:01.253Z,48.31
2023-09-13T08:31:30.573Z,47.85
2023-09-13T08:33:58.970Z,47.91
2023-09-13T08:36:26.739Z,47.82
2023-09-13T08:38:55.805Z,47.66
2023-09-13T08:41:34.077Z,47.50
2023-09-13T08:44:04.159Z,47.45
2023-09-13T08:46:32.205Z,47.68
2023-09-13T08:49:00.739Z,47.75
2023-09-13T08:51:29.393Z,48.06
2023-09-13T08:54:10.767Z,47.78
2023-09-13T08:56:48.105Z,46.94
2023-09-13T08:59:35.755Z,47.38
2023-09-13T09:02:08.439Z,46.01
2023-09-13T09:04:38.269Z,45.56
2023-09-13T09:07:10.670Z,45.47
2023-09-13T09:09:47.560Z,45.04
2023-09-13T09:12:19.782Z,44.47
2023-09-13T09:14:48.316Z,44.64
2023-09-13T09:17:16.266Z,44.84
2023-09-13T09:19:49.028Z,43.41
2023-09-13T09:22:22.552Z,42.65
2023-09-13T09:24:51.031Z,43.17
2023-09-13T09:27:19.187Z,43.50
2023-09-13T09:29:47.020Z,42.72
2023-09-13T09:32:16.634Z,43.34
2023-09-13T09:34:49.541Z,42.11
2023-09-13T09:37:17.258Z,41.84
2023-09-13T09:39:46.148Z,41.70
2023-09-13T09:42:14.847Z,40.97
2023-09-13T09:44:43.135Z,40.84
2023-09-13T09:47:11.282Z,40.38
2023-09-13T09:49:39.506Z,40.06
2023-09-13T09:52:07.303Z,40.33
2023-09-13T09:54:35.780Z,39.55
2023-09-13T09:57:03.862Z,38.97
2023-09-13T09:59:31.472Z,38.64
2023-09-13T10:02:01.642Z,38.56
2023-09-13T10:04:29.674Z,36.76
2023-09-13T10:06:57.909Z,36.25
2023-09-13T10:09:26.457Z,35.82
2023-09-13T10:11:53.991Z,34.23
2023-09-13T10:14:21.883Z,33.60
2023-09-13T10:16:51.324Z,32.97
2023-09-13T10:19:19.044Z,32.97
2023-09-13T10:21:46.939Z,32.31
2023-09-13T10:24:15.096Z,31.77
2023-09-13T10:26:43.484Z,31.67
2023-09-13T10:29:11.860Z,31.80
2023-09-13T10:31:41.167Z,32.20
2023-09-13T10:34:09.262Z,32.10
2023-09-13T10:36:37.456Z,31.47
2023-09-13T10:39:05.297Z,31.27
2023-09-13T10:41:34.875Z,31.39
2023-09-13T10:44:03.473Z,31.27
2023-09-13T10:46:32.045Z,31.01
2023-09-13T10:48:59.788Z,31.28
2023-09-13T10:51:28.252Z,30.40
2023-09-13T10:53:56.430Z,30.37
2023-09-13T10:56:24.498Z,31.13
2023-09-13T10:58:52.702Z,30.80
2023-09-13T11:01:20.598Z,29.58
2023-09-13T11:03:49.289Z,30.32
2023-09-13T11:06:17.098Z,30.55
2023-09-13T11:08:45.152Z,29.84
2023-09-13T11:11:13.191Z,30.11
2023-09-13T11:13:41.735Z,29.58
2023-09-13T11:16:09.491Z,29.31
2023-09-13T11:18:37.508Z,29.46
2023-09-13T11:21:06.226Z,29.27
2023-09-13T11:23:35.115Z,28.84
2023-09-13T11:26:05.333Z,29.22
2023-09-13T11:28:35.643Z,29.01
2023-09-13T11:31:03.790Z,29.22
2023-09-13T11:33:31.809Z,29.24
2023-09-13T11:36:00.192Z,28.55
2023-09-13T11:38:27.920Z,29.07
2023-09-13T11:40:58.470Z,28.16
2023-09-13T11:43:33.844Z,28.48
2023-09-13T11:46:03.128Z,28.03
2023-09-13T11:48:39.305Z,28.32
2023-09-13T11:51:20.539Z,28.18
2023-09-13T11:53:54.243Z,28.40
2023-09-13T11:56:41.461Z,28.13
2023-09-13T11:59:10.708Z,27.83
2023-09-13T12:01:40.898Z,28.37
2023-09-13T12:06:41.121Z,27.77
2023-09-13T12:09:14.584Z,27.71
2023-09-13T12:11:45.474Z,27.52
2023-09-13T12:14:22.682Z,27.60
2023-09-13T12:16:58.097Z,27.61
2023-09-13T12:19:26.574Z,27.79
2023-09-13T12:21:54.630Z,27.08
2023-09-13T12:24:23.228Z,27.18
2023-09-13T12:26:52.991Z,26.72
2023-09-13T12:29:22.027Z,27.65
2023-09-13T12:31:50.271Z,26.81
2023-09-13T12:34:17.911Z,26.83
2023-09-13T12:36:46.193Z,26.49
2023-09-13T12:39:16.279Z,26.20
2023-09-13T12:41:46.558Z,25.53
2023-09-13T12:44:14.904Z,24.86
2023-09-13T12:46:43.102Z,25.08
2023-09-13T12:49:10.725Z,25.06
2023-09-13T12:51:39.254Z,25.19
2023-09-13T12:54:07.096Z,24.88
2023-09-13T12:56:34.922Z,24.43
2023-09-13T12:59:03.077Z,24.46
2023-09-13T13:01:31.401Z,24.56
2023-09-13T13:04:00.525Z,24.36
2023-09-13T13:06:28.595Z,23.49
2023-09-13T13:08:56.147Z,22.90
2023-09-13T13:11:25.260Z,23.45
2023-09-13T13:13:52.877Z,22.96
2023-09-13T13:16:38.954Z,23.08
2023-09-13T13:21:41.729Z,23.69
2023-09-13T13:24:09.489Z,23.68
2023-09-13T13:26:37.206Z,23.69
2023-09-13T13:29:05.278Z,23.58
2023-09-13T13:31:33.075Z,23.18
2023-09-13T13:34:00.966Z,23.19
2023-09-13T13:36:28.717Z,22.54
2023-09-13T13:38:56.380Z,22.22
2023-09-13T13:41:24.480Z,22.99
2023-09-13T13:43:52.902Z,22.51
2023-09-13T13:46:21.167Z,21.53
2023-09-13T13:48:48.780Z,21.23
2023-09-13T13:51:16.941Z,20.77
2023-09-13T13:53:45.111Z,21.43
2023-09-13T13:56:13.440Z,21.51
2023-09-13T13:58:41.219Z,21.48
2023-09-13T14:01:08.884Z,21.62
2023-09-13T14:03:36.523Z,21.95
2023-09-13T14:06:04.508Z,21.94
2023-09-13T14:08:32.212Z,21.90
2023-09-13T14:10:59.878Z,22.03
2023-09-13T14:13:27.865Z,21.97
2023-09-13T14:15:55.584Z,22.43
2023-09-13T14:18:24.811Z,22.02
2023-09-13T14:20:53.012Z,21.65
2023-09-13T14:23:21.300Z,21.78
2023-09-13T14:25:49.187Z,21.44
2023-09-13T14:28:17.081Z,21.63
2023-09-13T14:30:45.002Z,21.73
2023-09-13T14:33:13.917Z,21.86
2023-09-13T14:35:42.455Z,21.60
2023-09-13T14:38:10.579Z,21.83
2023-09-13T14:40:39.450Z,22.08
2023-09-13T14:43:07.637Z,22.39
2023-09-13T14:45:35.382Z,22.45
2023-09-13T14:48:04.128Z,22.69
2023-09-13T14:50:32.044Z,22.75
2023-09-13T14:52:59.598Z,22.94
2023-09-13T14:55:27.241Z,23.37
2023-09-13T14:57:55.348Z,23.60
2023-09-13T15:00:23.168Z,23.40
2023-09-13T15:02:51.523Z,23.23
2023-09-13T15:05:19.578Z,22.86
2023-09-13T15:07:47.235Z,22.45
2023-09-13T15:10:14.842Z,22.17
2023-09-13T15:12:42.978Z,21.94
2023-09-13T15:15:10.657Z,21.93
2023-09-13T15:17:38.332Z,21.56
2023-09-13T15:20:06.891Z,21.61
2023-09-13T15:22:35.240Z,21.51
2023-09-13T15:25:02.873Z,21.55
2023-09-13T15:27:30.538Z,21.31
2023-09-13T15:29:58.282Z,21.40
2023-09-13T15:32:26.001Z,21.24
2023-09-13T15:34:54.209Z,22.00
2023-09-13T15:37:22.250Z,22.32
2023-09-13T15:39:50.485Z,22.69
2023-09-13T15:42:18.312Z,22.61
2023-09-13T15:44:46.512Z,23.24
2023-09-13T15:47:14.148Z,23.83
2023-09-13T15:49:42.235Z,24.22
2023-09-13T15:52:09.927Z,24.45
2023-09-13T15:54:38.522Z,24.55
2023-09-13T15:57:06.636Z,24.70
2023-09-13T15:59:35.084Z,25.01
2023-09-13T16:02:03.031Z,25.11
2023-09-13T16:04:30.779Z,25.56
2023-09-13T16:06:59.020Z,25.92
2023-09-13T16:09:26.797Z,26.31
2023-09-13T16:11:54.898Z,26.88
2023-09-13T16:14:22.957Z,27.54
2023-09-13T16:16:50.630Z,27.98
2023-09-13T16:19:18.991Z,28.66
2023-09-13T16:21:46.789Z,29.47
2023-09-13T16:24:14.441Z,29.91
2023-09-13T16:26:42.433Z,30.25
2023-09-13T16:29:12.074Z,30.87
2023-09-13T16:31:40.812Z,30.78
2023-09-13T16:34:08.466Z,31.88
2023-09-13T16:36:36.343Z,32.20
2023-09-13T16:39:04.143Z,32.48
2023-09-13T16:41:34.138Z,32.56
2023-09-13T16:44:01.815Z,32.70
2023-09-13T16:46:30.499Z,34.27
2023-09-13T16:48:58.590Z,34.24
2023-09-13T16:51:26.741Z,34.30
2023-09-13T16:53:55.531Z,34.33
2023-09-13T16:56:23.455Z,34.44
2023-09-13T16:58:51.691Z,34.32
2023-09-13T17:01:19.599Z,34.63
2023-09-13T17:03:48.699Z,35.55
2023-09-13T17:06:16.932Z,36.15
2023-09-13T17:08:45.178Z,35.70
2023-09-13T17:11:13.900Z,36.69
2023-09-13T17:13:43.009Z,36.58
2023-09-13T17:16:11.231Z,37.70
2023-09-13T17:18:40.459Z,37.38
2023-09-13T17:21:08.468Z,37.75
2023-09-13T17:23:36.622Z,37.70
2023-09-13T17:26:04.451Z,37.78
2023-09-13T17:28:32.822Z,38.31
2023-09-13T17:31:01.513Z,38.49
2023-09-13T17:33:29.343Z,38.78
2023-09-13T17:36:00.253Z,39.18
2023-09-13T17:38:29.340Z,39.66
2023-09-13T17:40:57.544Z,39.46
2023-09-13T17:43:27.778Z,38.96
2023-09-13T17:45:58.571Z,39.90
2023-09-13T17:48:26.867Z,40.32
2023-09-13T17:51:27.852Z,39.62
2023-09-13T17:59:28.006Z,40.71
2023-09-13T18:01:56.061Z,40.58
2023-09-13T18:04:23.944Z,41.18
2023-09-13T18:07:00.519Z,41.65
2023-09-13T18:09:29.769Z,41.75
2023-09-13T18:11:58.130Z,41.89
2023-09-13T18:14:27.568Z,42.02
2023-09-13T18:16:55.334Z,42.00
2023-09-13T18:19:26.340Z,40.94
2023-09-13T18:21:57.832Z,41.44
2023-09-13T18:24:36.770Z,41.25
2023-09-13T18:27:06.944Z,42.63
2023-09-13T18:29:36.650Z,42.91
2023-09-13T18:32:04.430Z,42.44
2023-09-13T18:34:32.879Z,42.15
2023-09-13T18:37:01.853Z,43.48
2023-09-13T18:39:31.688Z,43.10
2023-09-13T18:41:59.463Z,42.37
2023-09-13T18:44:27.567Z,42.13
2023-09-13T18:46:58.196Z,43.03
2023-09-13T18:49:27.849Z,42.75
2023-09-13T18:51:57.090Z,43.58
2023-09-13T18:54:25.039Z,44.91
2023-09-13T18:56:53.954Z,44.79
2023-09-13T18:59:33.984Z,44.69
2023-09-13T19:02:02.353Z,45.45
2023-09-13T19:04:32.207Z,45.86
2023-09-13T19:07:09.333Z,44.38
2023-09-13T19:09:39.584Z,45.05
2023-09-13T19:12:24.415Z,45.18
2023-09-13T19:14:54.104Z,45.78
2023-09-13T19:17:22.219Z,48.27
2023-09-13T19:19:50.124Z,46.66
2023-09-13T19:22:19.090Z,47.68
2023-09-13T19:24:56.721Z,47.50
2023-09-13T19:27:25.874Z,47.53
2023-09-13T19:30:03.331Z,49.75
2023-09-13T19:32:33.268Z,49.92
2023-09-13T19:35:01.589Z,49.60
2023-09-13T19:37:30.081Z,50.55
2023-09-13T19:39:59.116Z,51.13
2023-09-13T19:42:27.406Z,51.16
2023-09-13T19:44:59.153Z,51.51
2023-09-13T19:47:27.673Z,51.95
2023-09-13T19:49:55.524Z,52.63
2023-09-13T19:52:23.391Z,53.09
2023-09-13T19:54:53.427Z,52.70
2023-09-13T19:57:21.630Z,53.27
2023-09-13T19:59:53.971Z,53.98
2023-09-13T20:02:23.107Z,54.83
2023-09-13T20:04:52.110Z,54.51
2023-09-13T20:07:21.816Z,54.73
2023-09-13T20:09:49.640Z,55.41
2023-09-13T20:12:17.474Z,54.72
2023-09-13T20:14:46.216Z,55.87
2023-09-13T20:17:15.962Z,55.86
2023-09-13T20:19:46.031Z,53.79
2023-09-13T20:22:14.520Z,55.79
2023-09-13T20:24:42.903Z,55.81
2023-09-13T20:27:10.720Z,54.80
2023-09-13T20:29:40.539Z,56.61
2023-09-13T20:32:08.385Z,56.32
2023-09-13T20:34:52.160Z,56.43
2023-09-13T20:37:20.583Z,56.43
2023-09-13T20:39:50.578Z,56.17
2023-09-13T20:42:19.302Z,56.30
2023-09-13T20:44:54.584Z,56.85
2023-09-13T20:47:24.960Z,57.42
2023-09-13T20:49:52.999Z,57.71
2023-09-13T20:52:23.240Z,56.21
2023-09-13T20:54:51.275Z,57.66
2023-09-13T20:57:19.082Z,57.80
2023-09-13T20:59:47.085Z,56.60
2023-09-13T21:02:14.924Z,57.25
2023-09-13T21:04:43.070Z,57.64
2023-09-13T21:07:11.452Z,57.76
2023-09-13T21:09:39.778Z,58.03
2023-09-13T21:12:09.077Z,58.15
2023-09-13T21:14:37.737Z,58.88
2023-09-13T21:17:06.009Z,60.20
2023-09-13T21:19:41.688Z,60.02
2023-09-13T21:22:10.457Z,57.78
2023-09-13T21:24:55.780Z,61.88
2023-09-13T21:27:25.055Z,60.63
2023-09-13T21:29:55.269Z,61.55
2023-09-13T21:32:23.050Z,61.37
2023-09-13T21:35:02.230Z,60.17
2023-09-13T21:37:34.863Z,61.71
2023-09-13T21:40:04.714Z,61.86
2023-09-13T21:42:33.884Z,62.19
2023-09-13T21:45:04.080Z,63.26
2023-09-13T21:47:33.237Z,63.53
2023-09-13T21:50:02.152Z,64.73
2023-09-13T21:52:30.549Z,63.68
2023-09-13T21:55:06.721Z,63.76
2023-09-13T21:57:39.354Z,64.14
2023-09-13T22:00:07.414Z,64.79
2023-09-13T22:02:39.751Z,65.04
2023-09-13T22:05:08.623Z,64.73
2023-09-13T22:07:56.442Z,65.34
2023-09-13T22:10:25.234Z,64.14
2023-09-13T22:12:53.470Z,63.87
2023-09-13T22:15:23.280Z,66.69
2023-09-13T22:17:52.679Z,66.33
2023-09-13T22:20:21.637Z,67.19
2023-09-13T22:22:49.466Z,69.37
2023-09-13T22:25:17.792Z,70.63
2023-09-13T22:27:46.113Z,69.71
2023-09-13T22:30:14.361Z,69.16
2023-09-13T22:32:43.313Z,68.94
2023-09-13T22:35:12.166Z,69.45
2023-09-13T22:37:42.622Z,70.01
2023-09-13T22:40:10.793Z,69.22
2023-09-13T22:42:54.734Z,69.60
2023-09-13T22:45:27.416Z,70.58
2023-09-13T22:47:55.864Z,70.32
2023-09-13T22:50:45.876Z,69.99
2023-09-13T22:53:14.923Z,70.13
2023-09-13T22:55:42.677Z,70.92
2023-09-13T22:58:11.482Z,69.76
2023-09-13T23:00:42.973Z,71.87
2023-09-13T23:03:12.240Z,70.66
2023-09-13T23:05:41.109Z,70.99
2023-09-13T23:08:08.989Z,71.67
2023-09-13T23:10:37.511Z,71.24
2023-09-13T23:13:09.506Z,71.83
2023-09-13T23:15:37.755Z,74.00
2023-09-13T23:18:05.959Z,72.69
2023-09-13T23:20:34.300Z,70.96
2023-09-13T23:23:22.602Z,71.10
2023-09-13T23:26:10.869Z,71.47
2023-09-13T23:28:39.143Z,72.15
2023-09-13T23:31:08.233Z,72.07
2023-09-13T23:33:38.202Z,74.37
2023-09-13T23:36:07.129Z,72.70
2023-09-13T23:38:35.049Z,72.51
2023-09-13T23:41:03.007Z,74.95
2023-09-13T23:43:31.920Z,73.82
2023-09-13T23:46:00.349Z,75.01
2023-09-13T23:48:28.905Z,75.55
2023-09-13T23:50:58.793Z,73.61
2023-09-13T23:53:27.202Z,74.84
2023-09-13T23:55:56.873Z,75.79
2023-09-13T23:58:24.788Z,76.77
